sensor_id;sensor_type;location;lat;lon;timestamp;pressure;altitude;pressure_sealevel;temperature;humidity
27864;BME280;15980;51.092;13.916;2023-07-28T00:03:26;97624.56;;;17.50;100.00
27864;BME280;15980;51.092;13.916;2023-07-28T00:13:26;97626.06;;;17.58;100.00
27864;BME280;15980;51.092;13.916;2023-07-28T00:23:28;97613.41;;;17.57;100.00
27864;BME280;15980;51.092;13.916;2023-07-28T00:33:28;97601.84;;;17.63;100.00
27864;BME280;15980;51.092;13.916;2023-07-28T00:43:29;97593.47;;;17.66;100.00
27864;BME280;15980;51.092;13.916;2023-07-28T00:53:29;97589.13;;;17.69;100.00
27864;BME280;15980;51.092;13.916;2023-07-28T01:03:30;97587.88;;;17.73;100.00
27864;BME280;15980;51.092;13.916;2023-07-28T01:13:31;97581.50;;;17.76;100.00
27864;BME280;15980;51.092;13.916;2023-07-28T01:24:01;97588.88;;;17.90;100.00
27864;BME280;15980;51.092;13.916;2023-07-28T01:34:04;97587.78;;;17.84;100.00
27864;BME280;15980;51.092;13.916;2023-07-28T01:44:04;97589.53;;;17.67;100.00
27864;BME280;15980;51.092;13.916;2023-07-28T01:54:04;97585.97;;;17.67;100.00
27864;BME280;15980;51.092;13.916;2023-07-28T02:04:05;97581.69;;;17.58;100.00
27864;BME280;15980;51.092;13.916;2023-07-28T02:14:05;97580.00;;;17.68;100.00
27864;BME280;15980;51.092;13.916;2023-07-28T02:24:05;97588.34;;;17.68;100.00
27864;BME280;15980;51.092;13.916;2023-07-28T02:34:06;97595.03;;;17.71;100.00
27864;BME280;15980;51.092;13.916;2023-07-28T02:44:06;97578.41;;;17.71;100.00
27864;BME280;15980;51.092;13.916;2023-07-28T02:54:06;97568.94;;;17.65;100.00
27864;BME280;15980;51.092;13.916;2023-07-28T03:04:07;97559.94;;;17.53;100.00
27864;BME280;15980;51.092;13.916;2023-07-28T03:14:07;97568.34;;;17.46;100.00
27864;BME280;15980;51.092;13.916;2023-07-28T03:24:07;97586.13;;;17.52;100.00
27864;BME280;15980;51.092;13.916;2023-07-28T03:34:07;97586.97;;;17.46;100.00
27864;BME280;15980;51.092;13.916;2023-07-28T03:44:08;97586.53;;;17.51;100.00
27864;BME280;15980;51.092;13.916;2023-07-28T03:54:08;97580.56;;;17.52;100.00
27864;BME280;15980;51.092;13.916;2023-07-28T04:04:08;97586.41;;;17.62;100.00
27864;BME280;15980;51.092;13.916;2023-07-28T04:14:09;97593.53;;;17.63;100.00
27864;BME280;15980;51.092;13.916;2023-07-28T04:24:09;97600.91;;;17.76;100.00
27864;BME280;15980;51.092;13.916;2023-07-28T04:34:09;97608.66;;;17.92;100.00
27864;BME280;15980;51.092;13.916;2023-07-28T04:44:10;97609.41;;;17.96;100.00
27864;BME280;15980;51.092;13.916;2023-07-28T04:54:10;97608.16;;;18.01;100.00
27864;BME280;15980;51.092;13.916;2023-07-28T05:04:10;97611.34;;;17.99;100.00
27864;BME280;15980;51.092;13.916;2023-07-28T05:14:11;97614.94;;;18.30;100.00
27864;BME280;15980;51.092;13.916;2023-07-28T05:24:11;97618.66;;;18.47;100.00
27864;BME280;15980;51.092;13.916;2023-07-28T05:34:11;97634.84;;;18.52;100.00
27864;BME280;15980;51.092;13.916;2023-07-28T05:44:11;97642.06;;;18.76;99.27
27864;BME280;15980;51.092;13.916;2023-07-28T05:54:12;97650.03;;;18.74;98.71
27864;BME280;15980;51.092;13.916;2023-07-28T06:04:12;97655.13;;;19.03;97.16
27864;BME280;15980;51.092;13.916;2023-07-28T06:14:13;97656.09;;;19.20;95.01
27864;BME280;15980;51.092;13.916;2023-07-28T06:24:13;97663.16;;;19.24;94.46
27864;BME280;15980;51.092;13.916;2023-07-28T06:34:13;97672.72;;;19.70;92.72
27864;BME280;15980;51.092;13.916;2023-07-28T06:44:14;97686.63;;;20.53;90.19
27864;BME280;15980;51.092;13.916;2023-07-28T06:54:14;97699.50;;;21.35;83.60
27864;BME280;15980;51.092;13.916;2023-07-28T07:04:14;97692.44;;;21.30;82.75
27864;BME280;15980;51.092;13.916;2023-07-28T07:14:14;97704.97;;;20.50;85.33
27864;BME280;15980;51.092;13.916;2023-07-28T07:24:15;97722.13;;;19.86;88.60
27864;BME280;15980;51.092;13.916;2023-07-28T07:34:15;97721.47;;;19.78;88.66
27864;BME280;15980;51.092;13.916;2023-07-28T07:44:15;97725.03;;;20.22;87.15
27864;BME280;15980;51.092;13.916;2023-07-28T07:54:16;97727.13;;;19.94;87.26
27864;BME280;15980;51.092;13.916;2023-07-28T08:04:16;97739.94;;;20.12;86.43
27864;BME280;15980;51.092;13.916;2023-07-28T08:14:16;97725.66;;;21.41;81.11
27864;BME280;15980;51.092;13.916;2023-07-28T08:24:16;97727.28;;;22.45;76.53
27864;BME280;15980;51.092;13.916;2023-07-28T08:34:17;97725.16;;;21.91;78.79
27864;BME280;15980;51.092;13.916;2023-07-28T08:44:17;97739.09;;;21.10;80.36
27864;BME280;15980;51.092;13.916;2023-07-28T08:54:17;97762.53;;;20.37;83.87
27864;BME280;15980;51.092;13.916;2023-07-28T09:04:18;97778.94;;;20.31;82.77
27864;BME280;15980;51.092;13.916;2023-07-28T09:14:19;97783.50;;;20.22;83.03
27864;BME280;15980;51.092;13.916;2023-07-28T09:24:20;97790.78;;;20.59;82.43
27864;BME280;15980;51.092;13.916;2023-07-28T09:34:27;97804.16;;;22.08;75.98
27864;BME280;15980;51.092;13.916;2023-07-28T09:44:28;97796.84;;;23.39;71.35
27864;BME280;15980;51.092;13.916;2023-07-28T09:54:29;97797.19;;;23.54;68.91
27864;BME280;15980;51.092;13.916;2023-07-28T10:04:29;97789.59;;;24.27;67.10
27864;BME280;15980;51.092;13.916;2023-07-28T10:14:34;97796.00;;;24.50;67.14
27864;BME280;15980;51.092;13.916;2023-07-28T10:24:53;97788.47;;;23.65;65.33
27864;BME280;15980;51.092;13.916;2023-07-28T10:35:02;97796.66;;;24.19;65.00
27864;BME280;15980;51.092;13.916;2023-07-28T10:45:06;97801.13;;;24.17;64.63
27864;BME280;15980;51.092;13.916;2023-07-28T10:55:26;97803.34;;;23.74;65.14
27864;BME280;15980;51.092;13.916;2023-07-28T11:05:28;97791.47;;;23.96;64.62
27864;BME280;15980;51.092;13.916;2023-07-28T11:15:29;97805.94;;;24.63;62.29
27864;BME280;15980;51.092;13.916;2023-07-28T11:25:31;97801.09;;;23.95;62.06
27864;BME280;15980;51.092;13.916;2023-07-28T11:35:31;97790.47;;;24.24;61.98
27864;BME280;15980;51.092;13.916;2023-07-28T11:45:31;97801.75;;;24.46;58.57
27864;BME280;15980;51.092;13.916;2023-07-28T11:55:33;97800.72;;;24.96;60.62
27864;BME280;15980;51.092;13.916;2023-07-28T12:05:35;97810.94;;;24.47;58.61
27864;BME280;15980;51.092;13.916;2023-07-28T12:15:40;97824.22;;;24.33;59.30
27864;BME280;15980;51.092;13.916;2023-07-28T12:25:41;97825.06;;;24.99;58.23
27864;BME280;15980;51.092;13.916;2023-07-28T12:35:41;97820.56;;;25.24;55.64
27864;BME280;15980;51.092;13.916;2023-07-28T12:45:41;97818.56;;;24.68;56.66
27864;BME280;15980;51.092;13.916;2023-07-28T12:55:42;97820.63;;;25.11;58.17
27864;BME280;15980;51.092;13.916;2023-07-28T13:05:43;97841.59;;;25.19;55.60
27864;BME280;15980;51.092;13.916;2023-07-28T13:15:44;97822.69;;;25.51;54.62
27864;BME280;15980;51.092;13.916;2023-07-28T13:25:44;97836.91;;;25.56;54.02
27864;BME280;15980;51.092;13.916;2023-07-28T13:35:44;97822.16;;;26.05;54.58
27864;BME280;15980;51.092;13.916;2023-07-28T13:45:44;97828.47;;;25.78;53.68
27864;BME280;15980;51.092;13.916;2023-07-28T13:55:45;97824.22;;;25.74;52.86
27864;BME280;15980;51.092;13.916;2023-07-28T14:05:45;97841.53;;;26.12;52.40
27864;BME280;15980;51.092;13.916;2023-07-28T14:15:45;97845.22;;;26.00;53.32
27864;BME280;15980;51.092;13.916;2023-07-28T14:25:46;97845.19;;;25.91;53.44
27864;BME280;15980;51.092;13.916;2023-07-28T14:35:48;97838.94;;;27.09;50.08
27864;BME280;15980;51.092;13.916;2023-07-28T14:45:49;97835.75;;;27.26;49.16
27864;BME280;15980;51.092;13.916;2023-07-28T14:55:50;97847.06;;;25.85;51.81
27864;BME280;15980;51.092;13.916;2023-07-28T15:05:50;97872.66;;;25.03;53.79
27864;BME280;15980;51.092;13.916;2023-07-28T15:15:51;97873.00;;;24.70;55.92
27864;BME280;15980;51.092;13.916;2023-07-28T15:25:51;97875.44;;;24.81;56.62
27864;BME280;15980;51.092;13.916;2023-07-28T15:35:52;97878.00;;;25.32;55.31
27864;BME280;15980;51.092;13.916;2023-07-28T15:45:52;97866.22;;;26.26;53.14
27864;BME280;15980;51.092;13.916;2023-07-28T15:55:52;97874.63;;;25.46;53.42
27864;BME280;15980;51.092;13.916;2023-07-28T16:05:54;97877.91;;;25.66;53.84
27864;BME280;15980;51.092;13.916;2023-07-28T16:15:54;97874.97;;;25.48;54.66
27864;BME280;15980;51.092;13.916;2023-07-28T16:25:54;97886.75;;;25.34;54.81
27864;BME280;15980;51.092;13.916;2023-07-28T16:35:55;97889.22;;;25.85;54.55
27864;BME280;15980;51.092;13.916;2023-07-28T16:45:55;97890.94;;;25.29;55.72
27864;BME280;15980;51.092;13.916;2023-07-28T16:55:56;97886.91;;;25.61;56.88
27864;BME280;15980;51.092;13.916;2023-07-28T17:05:56;97884.03;;;26.23;56.71
27864;BME280;15980;51.092;13.916;2023-07-28T17:15:57;97887.78;;;25.80;56.80
27864;BME280;15980;51.092;13.916;2023-07-28T17:25:57;97881.09;;;25.87;59.42
27864;BME280;15980;51.092;13.916;2023-07-28T17:35:58;97898.44;;;25.32;59.93
27864;BME280;15980;51.092;13.916;2023-07-28T17:45:58;97893.13;;;24.56;62.94
27864;BME280;15980;51.092;13.916;2023-07-28T17:55:59;97912.25;;;24.10;65.37
27864;BME280;15980;51.092;13.916;2023-07-28T18:05:59;97906.22;;;23.87;66.71
27864;BME280;15980;51.092;13.916;2023-07-28T18:15:59;97910.56;;;23.75;67.79
27864;BME280;15980;51.092;13.916;2023-07-28T18:26:00;97921.06;;;23.45;67.49
27864;BME280;15980;51.092;13.916;2023-07-28T18:36:00;97925.31;;;23.08;68.65
27864;BME280;15980;51.092;13.916;2023-07-28T18:46:00;97923.81;;;22.75;69.94
27864;BME280;15980;51.092;13.916;2023-07-28T18:56:01;97939.75;;;22.29;71.93
27864;BME280;15980;51.092;13.916;2023-07-28T19:06:01;97949.03;;;21.90;73.72
27864;BME280;15980;51.092;13.916;2023-07-28T19:16:01;97956.03;;;21.62;75.23
27864;BME280;15980;51.092;13.916;2023-07-28T19:26:02;97967.88;;;21.30;77.02
27864;BME280;15980;51.092;13.916;2023-07-28T19:36:02;97984.25;;;21.28;77.79
27864;BME280;15980;51.092;13.916;2023-07-28T19:46:03;97980.72;;;21.24;78.46
27864;BME280;15980;51.092;13.916;2023-07-28T19:56:03;97975.97;;;21.21;78.21
27864;BME280;15980;51.092;13.916;2023-07-28T20:06:04;97995.38;;;21.08;78.36
27864;BME280;15980;51.092;13.916;2023-07-28T20:16:04;98002.16;;;21.07;78.19
27864;BME280;15980;51.092;13.916;2023-07-28T20:26:04;98006.53;;;21.08;78.05
27864;BME280;15980;51.092;13.916;2023-07-28T20:36:05;98021.25;;;21.09;77.91
27864;BME280;15980;51.092;13.916;2023-07-28T20:46:05;98022.63;;;21.20;77.80
27864;BME280;15980;51.092;13.916;2023-07-28T20:56:05;98014.88;;;21.08;78.22
27864;BME280;15980;51.092;13.916;2023-07-28T21:06:06;98016.78;;;20.91;78.72
27864;BME280;15980;51.092;13.916;2023-07-28T21:16:06;98012.38;;;20.94;79.05
27864;BME280;15980;51.092;13.916;2023-07-28T21:26:06;98017.72;;;20.85;80.62
27864;BME280;15980;51.092;13.916;2023-07-28T21:36:06;98019.34;;;20.59;82.37
27864;BME280;15980;51.092;13.916;2023-07-28T21:46:07;98032.25;;;20.49;82.20
27864;BME280;15980;51.092;13.916;2023-07-28T21:56:07;98038.03;;;20.31;82.49
27864;BME280;15980;51.092;13.916;2023-07-28T22:06:10;98039.16;;;20.11;83.91
27864;BME280;15980;51.092;13.916;2023-07-28T22:16:10;98049.78;;;19.89;85.03
27864;BME280;15980;51.092;13.916;2023-07-28T22:26:11;98049.00;;;19.88;85.35
27864;BME280;15980;51.092;13.916;2023-07-28T22:36:11;98061.94;;;19.71;86.13
27864;BME280;15980;51.092;13.916;2023-07-28T22:46:11;98064.94;;;19.54;87.71
27864;BME280;15980;51.092;13.916;2023-07-28T22:56:12;98070.84;;;19.59;87.69
27864;BME280;15980;51.092;13.916;2023-07-28T23:06:12;98071.81;;;19.76;87.81
27864;BME280;15980;51.092;13.916;2023-07-28T23:16:12;98064.31;;;19.73;87.62
27864;BME280;15980;51.092;13.916;2023-07-28T23:26:12;98072.28;;;19.71;87.37
27864;BME280;15980;51.092;13.916;2023-07-28T23:36:13;98063.75;;;19.55;87.42
27864;BME280;15980;51.092;13.916;2023-07-28T23:46:13;98068.72;;;19.33;88.44
27864;BME280;15980;51.092;13.916;2023-07-28T23:56:13;98068.78;;;19.26;89.70
